Darstellungsparameter: Aktuell verwendete Einstellungen:
Skalierung der Graphiken ... ?
xyx+y,   Skalierungsfaktor:      Skalierung: Modus: x, Faktor: 1
Darstellungszeitraum ... ?
Vom - - bis: - -   Zeitraum: 24.11.2020 - 24.11.2020
Min/Max/Avg-Anzeige ... ?
Zeige MMA aktuell
Zeige MMA Monat
Zeige MMA alles
Zeige --A aktuell
Zeige --A Monat
Zeige --A alles
Keine MMA-Anzeige
MMA:
Average (ber die Originaldaten)
MMA-Basis: 24.11.2020 - 24.11.2020
Quicknavigation für Darstellung... ?
Tage:      1T, 2T, 3T, 5T -1T -2T -3T -5T +1T +2T +3T +5T
Wochen: 1W, 2W, 3W -1W -2W -3W +1W +2W +3W
Monate: 1M, 3M, 6M -1M -3M -6M +1M +3M +6M
Jahre:    1J, 3J, 5J, 10J -1J -3J -5J -10J +1J +3J +5J +10J
Nutze für die Darstellung ... ?
Originaldaten oder Mittelwerte auf ...
Stundenbasis Tagesbasis Wochenbasis
Monatsbasis Jahresbasis      Datenbasis: Original-Daten
Darstellen als:
Statistik (Auto) Statistik J:M      Darstellung:

Der gewünschte Datumsbereich war nicht gültig/verfügbar und wurde korrigiert....
Das angegebene Enddatum (15.05.2023 23:59:59) liegt in der Zukunft.
Das angegebene Startdatum (15.05.2023 00:00:00) liegt in der Zukunft.


Zur Graphik,    zurück zur Übersicht aller Sensoren.
 
Tabellarische Datenbersicht: ?
 
Sensor: Nr:Datum:Temp:Abs-Feuchte:Windchill:Wind:
Aussen-T/F 1 24-11-2020 01:00:00 6.8 C 7.19 g/m*3 6.8 C 0 km/h
2 24-11-2020 01:05:00 6.7 C 7.14 g/m*3 6.7 C 0 km/h
3 24-11-2020 01:10:00 6.7 C 7.14 g/m*3 6.7 C 0 km/h
4 24-11-2020 01:15:00 6.7 C 7.14 g/m*3 6.7 C 0 km/h
5 24-11-2020 01:20:00 6.7 C 7.14 g/m*3 6.7 C 1.6 km/h
6 24-11-2020 01:25:00 6.6 C 7.1 g/m*3 6.6 C 1.6 km/h
7 24-11-2020 01:30:00 6.6 C 7.1 g/m*3 6.6 C 0 km/h
8 24-11-2020 01:35:00 6.6 C 7.1 g/m*3 6.6 C 0 km/h
9 24-11-2020 01:40:00 6.6 C 7.1 g/m*3 6.6 C 0 km/h
10 24-11-2020 01:45:00 6.6 C 7.1 g/m*3 6.6 C 0 km/h
11 24-11-2020 01:50:00 6.6 C 7.1 g/m*3 6.6 C 0 km/h
12 24-11-2020 01:55:00 6.6 C 7.1 g/m*3 6.6 C 1.6 km/h
13 24-11-2020 02:00:00 6.6 C 7.1 g/m*3 6.6 C 1.6 km/h
14 24-11-2020 02:05:00 6.6 C 7.1 g/m*3 6.6 C 1.6 km/h
15 24-11-2020 02:10:00 6.5 C 7.05 g/m*3 6.5 C 3.2 km/h
16 24-11-2020 02:15:00 6.5 C 7.05 g/m*3 6.5 C 0 km/h
17 24-11-2020 02:20:00 6.5 C 7.05 g/m*3 6.5 C 1.6 km/h
18 24-11-2020 02:25:00 6.4 C 6.93 g/m*3 6.4 C 3.2 km/h
19 24-11-2020 02:30:00 6.4 C 6.93 g/m*3 6.4 C 4.8 km/h
20 24-11-2020 02:35:00 6.4 C 6.93 g/m*3 4.75 C 8.1 km/h
21 24-11-2020 02:40:00 6.4 C 6.93 g/m*3 6.4 C 1.6 km/h
22 24-11-2020 02:45:00 6.4 C 6.93 g/m*3 6.4 C 1.6 km/h
23 24-11-2020 02:50:00 6.3 C 6.88 g/m*3 6.3 C 1.6 km/h
24 24-11-2020 02:55:00 6.4 C 6.93 g/m*3 6.4 C 0 km/h
25 24-11-2020 03:00:00 6.4 C 6.93 g/m*3 6.4 C 0 km/h
Sensor: Nr:Datum:Temp:Abs-Feuchte:Windchill:Wind:
Aussen-T/F 26 24-11-2020 03:05:00 6.4 C 6.93 g/m*3 6.4 C 0 km/h
27 24-11-2020 03:10:00 6.3 C 6.88 g/m*3 6.3 C 0 km/h
28 24-11-2020 03:15:00 6.3 C 6.88 g/m*3 6.3 C 0 km/h
29 24-11-2020 03:20:00 6.3 C 6.88 g/m*3 6.3 C 0 km/h
30 24-11-2020 03:25:00 6.3 C 6.88 g/m*3 6.3 C 0 km/h
31 24-11-2020 03:30:00 6.3 C 6.88 g/m*3 6.3 C 1.6 km/h
32 24-11-2020 03:35:00 6.3 C 6.88 g/m*3 6.3 C 1.6 km/h
33 24-11-2020 03:40:00 6.3 C 6.88 g/m*3 6.3 C 3.2 km/h
34 24-11-2020 03:45:00 6.3 C 6.88 g/m*3 6.3 C 0 km/h
35 24-11-2020 03:50:00 6.2 C 6.84 g/m*3 4.98 C 6.4 km/h
36 24-11-2020 03:55:00 6.2 C 6.84 g/m*3 6.2 C 4.8 km/h
37 24-11-2020 04:00:00 6.2 C 6.84 g/m*3 6.2 C 0 km/h
38 24-11-2020 04:05:00 6.1 C 6.79 g/m*3 6.1 C 4.8 km/h
39 24-11-2020 04:10:00 6.1 C 6.79 g/m*3 6.1 C 0 km/h
40 24-11-2020 04:15:00 6.1 C 6.79 g/m*3 6.1 C 1.6 km/h
41 24-11-2020 04:20:00 6.1 C 6.79 g/m*3 6.1 C 0 km/h
42 24-11-2020 04:25:00 6.1 C 6.79 g/m*3 6.1 C 0 km/h
43 24-11-2020 04:30:00 6 C 6.82 g/m*3 6 C 0 km/h
44 24-11-2020 04:35:00 6 C 6.82 g/m*3 6 C 4.8 km/h
45 24-11-2020 04:40:00 6 C 6.82 g/m*3 6 C 1.6 km/h
46 24-11-2020 04:45:00 6 C 6.82 g/m*3 6 C 4.8 km/h
47 24-11-2020 04:50:00 6 C 6.82 g/m*3 6 C 1.6 km/h
48 24-11-2020 04:55:00 5.9 C 6.78 g/m*3 5.9 C 1.6 km/h
49 24-11-2020 05:00:00 5.9 C 6.78 g/m*3 5.9 C 1.6 km/h
50 24-11-2020 05:05:00 5.9 C 6.78 g/m*3 5.9 C 1.6 km/h
Sensor: Nr:Datum:Temp:Abs-Feuchte:Windchill:Wind:
Aussen-T/F 51 24-11-2020 05:10:00 5.9 C 6.78 g/m*3 5.9 C 0 km/h
52 24-11-2020 05:15:00 5.9 C 6.78 g/m*3 5.9 C 0 km/h
53 24-11-2020 05:20:00 5.9 C 6.78 g/m*3 5.9 C 3.2 km/h
54 24-11-2020 05:25:00 5.8 C 6.73 g/m*3 5.8 C 0 km/h
55 24-11-2020 05:30:00 5.9 C 6.78 g/m*3 5.9 C 0 km/h
56 24-11-2020 05:35:00 5.8 C 6.73 g/m*3 5.8 C 0 km/h
57 24-11-2020 05:40:00 5.9 C 6.78 g/m*3 5.9 C 0 km/h
58 24-11-2020 05:45:00 5.9 C 6.78 g/m*3 5.9 C 0 km/h
59 24-11-2020 05:50:00 5.8 C 6.73 g/m*3 5.8 C 1.6 km/h
60 24-11-2020 05:55:00 5.8 C 6.73 g/m*3 5.8 C 0 km/h
61 24-11-2020 06:00:00 5.8 C 6.73 g/m*3 5.8 C 1.6 km/h
62 24-11-2020 06:05:00 5.8 C 6.73 g/m*3 5.8 C 1.6 km/h
63 24-11-2020 06:10:00 5.8 C 6.73 g/m*3 5.8 C 0 km/h
64 24-11-2020 06:15:00 5.8 C 6.73 g/m*3 5.8 C 1.6 km/h
65 24-11-2020 06:20:00 5.7 C 6.69 g/m*3 5.7 C 0 km/h
66 24-11-2020 06:25:00 5.7 C 6.69 g/m*3 5.7 C 0 km/h
67 24-11-2020 06:30:00 5.7 C 6.69 g/m*3 5.7 C 0 km/h
68 24-11-2020 06:35:00 5.8 C 6.73 g/m*3 5.8 C 0 km/h
69 24-11-2020 06:40:00 5.8 C 6.73 g/m*3 5.8 C 0 km/h
70 24-11-2020 06:45:00 5.8 C 6.73 g/m*3 5.8 C 0 km/h
71 24-11-2020 06:50:00 5.8 C 6.73 g/m*3 5.8 C 0 km/h
72 24-11-2020 06:55:00 5.8 C 6.73 g/m*3 5.8 C 0 km/h
73 24-11-2020 07:00:00 5.8 C 6.73 g/m*3 5.8 C 0 km/h
74 24-11-2020 07:05:00 5.9 C 6.78 g/m*3 5.9 C 1.6 km/h
75 24-11-2020 07:10:00 5.8 C 6.73 g/m*3 4.52 C 6.4 km/h
Sensor: Nr:Datum:Temp:Abs-Feuchte:Windchill:Wind:
Aussen-T/F 76 24-11-2020 07:15:00 5.7 C 6.69 g/m*3 4.4 C 6.4 km/h
77 24-11-2020 07:20:00 5.7 C 6.69 g/m*3 4.4 C 6.4 km/h
78 24-11-2020 07:25:00 5.6 C 6.65 g/m*3 5.6 C 4.8 km/h
79 24-11-2020 07:30:00 5.6 C 6.65 g/m*3 5.6 C 1.6 km/h
80 24-11-2020 07:35:00 5.5 C 6.6 g/m*3 4.17 C 6.4 km/h
81 24-11-2020 07:40:00 5.4 C 6.56 g/m*3 5.4 C 4.8 km/h
82 24-11-2020 07:45:00 5.4 C 6.56 g/m*3 5.4 C 1.6 km/h
83 24-11-2020 07:50:00 5.4 C 6.56 g/m*3 5.4 C 3.2 km/h
84 24-11-2020 07:55:00 5.4 C 6.56 g/m*3 5.4 C 3.2 km/h
85 24-11-2020 08:00:00 5.4 C 6.56 g/m*3 5.4 C 0 km/h
86 24-11-2020 08:05:00 5.4 C 6.56 g/m*3 5.4 C 3.2 km/h
87 24-11-2020 08:10:00 5.4 C 6.56 g/m*3 5.4 C 0 km/h
88 24-11-2020 08:15:00 5.4 C 6.56 g/m*3 5.4 C 3.2 km/h
89 24-11-2020 08:20:00 5.4 C 6.56 g/m*3 5.4 C 4.8 km/h
90 24-11-2020 08:25:00 5.3 C 6.52 g/m*3 5.3 C 4.8 km/h
91 24-11-2020 08:30:00 5.3 C 6.52 g/m*3 5.3 C 3.2 km/h
92 24-11-2020 08:35:00 5.3 C 6.52 g/m*3 5.3 C 4.8 km/h
93 24-11-2020 08:40:00 5.2 C 6.47 g/m*3 3.82 C 6.4 km/h
94 24-11-2020 08:45:00 5.2 C 6.47 g/m*3 5.2 C 4.8 km/h
95 24-11-2020 08:50:00 5.2 C 6.47 g/m*3 5.2 C 3.2 km/h
96 24-11-2020 08:55:00 5.2 C 6.47 g/m*3 5.2 C 3.2 km/h
97 24-11-2020 09:00:00 5.1 C 6.43 g/m*3 5.1 C 4.8 km/h
98 24-11-2020 09:05:00 5.1 C 6.43 g/m*3 3.71 C 6.4 km/h
99 24-11-2020 09:10:00 5.1 C 6.43 g/m*3 5.1 C 0 km/h
100 24-11-2020 09:15:00 5.2 C 6.47 g/m*3 5.2 C 1.6 km/h
Sensor: Nr:Datum:Temp:Abs-Feuchte:Windchill:Wind:
Aussen-T/F 101 24-11-2020 09:20:00 5.2 C 6.47 g/m*3 5.2 C 3.2 km/h
102 24-11-2020 09:25:00 5.2 C 6.47 g/m*3 5.2 C 4.8 km/h
103 24-11-2020 09:30:00 5.2 C 6.47 g/m*3 5.2 C 4.8 km/h
104 24-11-2020 09:35:00 5.3 C 6.52 g/m*3 5.3 C 3.2 km/h
105 24-11-2020 09:40:00 5.3 C 6.52 g/m*3 5.3 C 3.2 km/h
106 24-11-2020 09:45:00 5.3 C 6.52 g/m*3 5.3 C 0 km/h
107 24-11-2020 09:50:00 5.4 C 6.56 g/m*3 5.4 C 0 km/h
108 24-11-2020 09:55:00 5.5 C 6.6 g/m*3 5.5 C 0 km/h
109 24-11-2020 10:00:00 5.6 C 6.65 g/m*3 5.6 C 0 km/h
110 24-11-2020 10:05:00 5.6 C 6.65 g/m*3 5.6 C 1.6 km/h
111 24-11-2020 10:10:00 5.7 C 6.69 g/m*3 5.7 C 0 km/h
112 24-11-2020 10:15:00 5.8 C 6.73 g/m*3 5.8 C 0 km/h
113 24-11-2020 10:20:00 5.9 C 6.78 g/m*3 5.9 C 1.6 km/h
114 24-11-2020 10:25:00 6 C 6.82 g/m*3 6 C 0 km/h
115 24-11-2020 10:30:00 6.1 C 6.79 g/m*3 6.1 C 1.6 km/h
116 24-11-2020 10:35:00 6.1 C 6.79 g/m*3 6.1 C 0 km/h
117 24-11-2020 10:40:00 6.2 C 6.84 g/m*3 6.2 C 0 km/h
118 24-11-2020 10:45:00 6.2 C 6.84 g/m*3 6.2 C 1.6 km/h
119 24-11-2020 10:50:00 6.3 C 6.88 g/m*3 6.3 C 3.2 km/h
120 24-11-2020 10:55:00 6.4 C 6.93 g/m*3 6.4 C 3.2 km/h
121 24-11-2020 11:00:00 6.4 C 6.93 g/m*3 6.4 C 1.6 km/h
122 24-11-2020 11:05:00 6.5 C 6.9 g/m*3 6.5 C 0 km/h
123 24-11-2020 11:10:00 6.6 C 6.95 g/m*3 6.6 C 1.6 km/h
124 24-11-2020 11:15:00 6.6 C 6.95 g/m*3 6.6 C 0 km/h
125 24-11-2020 11:20:00 6.6 C 6.95 g/m*3 6.6 C 1.6 km/h
Sensor: Nr:Datum:Temp:Abs-Feuchte:Windchill:Wind:
Aussen-T/F 126 24-11-2020 11:25:00 6.6 C 6.87 g/m*3 6.6 C 3.2 km/h
127 24-11-2020 11:30:00 6.7 C 6.91 g/m*3 6.7 C 4.8 km/h
128 24-11-2020 11:35:00 6.7 C 6.91 g/m*3 6.7 C 3.2 km/h
129 24-11-2020 11:40:00 6.8 C 6.96 g/m*3 6.8 C 1.6 km/h
130 24-11-2020 11:45:00 6.8 C 6.96 g/m*3 6.8 C 3.2 km/h
131 24-11-2020 11:50:00 6.9 C 6.93 g/m*3 6.9 C 3.2 km/h
132 24-11-2020 11:55:00 6.9 C 6.93 g/m*3 5.34 C 8.1 km/h
133 24-11-2020 12:00:00 7 C 6.97 g/m*3 7 C 4.8 km/h
134 24-11-2020 12:05:00 7 C 6.97 g/m*3 7 C 1.6 km/h
135 24-11-2020 12:10:00 7.1 C 7.02 g/m*3 7.1 C 3.2 km/h
136 24-11-2020 12:15:00 7.2 C 6.99 g/m*3 7.2 C 4.8 km/h
137 24-11-2020 12:20:00 7.2 C 6.99 g/m*3 7.2 C 3.2 km/h
138 24-11-2020 12:25:00 7.2 C 6.99 g/m*3 7.2 C 0 km/h
139 24-11-2020 12:30:00 7.2 C 6.99 g/m*3 7.2 C 3.2 km/h
140 24-11-2020 12:35:00 7.2 C 6.99 g/m*3 7.2 C 0 km/h
141 24-11-2020 12:40:00 7.3 C 7.03 g/m*3 7.3 C 4.8 km/h
142 24-11-2020 12:45:00 7.3 C 6.95 g/m*3 7.3 C 4.8 km/h
143 24-11-2020 12:50:00 7.3 C 6.95 g/m*3 7.3 C 3.2 km/h
144 24-11-2020 12:55:00 7.3 C 6.95 g/m*3 7.3 C 1.6 km/h
145 24-11-2020 13:00:00 7.3 C 6.95 g/m*3 5.81 C 8.1 km/h
146 24-11-2020 13:05:00 7.3 C 6.95 g/m*3 7.3 C 4.8 km/h
147 24-11-2020 13:10:00 7.3 C 6.95 g/m*3 6.25 C 6.4 km/h
148 24-11-2020 13:15:00 7.3 C 6.95 g/m*3 6.25 C 6.4 km/h
149 24-11-2020 13:20:00 7.2 C 6.91 g/m*3 5.69 C 8.1 km/h
150 24-11-2020 13:25:00 7.3 C 7.03 g/m*3 7.3 C 1.6 km/h
Sensor: Nr:Datum:Temp:Abs-Feuchte:Windchill:Wind:
Aussen-T/F 151 24-11-2020 13:30:00 7.3 C 7.03 g/m*3 7.3 C 4.8 km/h
152 24-11-2020 13:35:00 7.3 C 6.95 g/m*3 7.3 C 3.2 km/h
153 24-11-2020 13:40:00 7.3 C 7.03 g/m*3 7.3 C 1.6 km/h
154 24-11-2020 13:45:00 7.3 C 7.03 g/m*3 7.3 C 1.6 km/h
155 24-11-2020 13:50:00 7.2 C 6.99 g/m*3 6.13 C 6.4 km/h
156 24-11-2020 13:55:00 7.2 C 6.91 g/m*3 7.2 C 4.8 km/h
157 24-11-2020 14:00:00 7.2 C 6.91 g/m*3 7.2 C 4.8 km/h
158 24-11-2020 14:05:00 7.2 C 6.99 g/m*3 7.2 C 0 km/h
159 24-11-2020 14:10:00 7.1 C 6.94 g/m*3 7.1 C 3.2 km/h
160 24-11-2020 14:15:00 7.1 C 6.94 g/m*3 7.1 C 3.2 km/h
161 24-11-2020 14:20:00 7.1 C 6.94 g/m*3 7.1 C 1.6 km/h
162 24-11-2020 14:25:00 7 C 6.9 g/m*3 7 C 4.8 km/h
163 24-11-2020 14:30:00 6.9 C 6.85 g/m*3 6.9 C 4.8 km/h
164 24-11-2020 14:35:00 6.8 C 6.81 g/m*3 6.8 C 4.8 km/h
165 24-11-2020 14:40:00 6.8 C 6.81 g/m*3 5.67 C 6.4 km/h
166 24-11-2020 14:45:00 6.7 C 6.76 g/m*3 4.75 C 9.7 km/h
167 24-11-2020 14:50:00 6.7 C 6.76 g/m*3 6.7 C 4.8 km/h
168 24-11-2020 14:55:00 6.6 C 6.72 g/m*3 6.6 C 3.2 km/h
169 24-11-2020 15:00:00 6.6 C 6.72 g/m*3 4.99 C 8.1 km/h
170 24-11-2020 15:05:00 6.6 C 6.72 g/m*3 6.6 C 3.2 km/h
171 24-11-2020 15:10:00 6.6 C 6.79 g/m*3 6.6 C 3.2 km/h
172 24-11-2020 15:15:00 6.6 C 6.79 g/m*3 6.6 C 4.8 km/h
173 24-11-2020 15:20:00 6.6 C 6.79 g/m*3 6.6 C 4.8 km/h
174 24-11-2020 15:25:00 6.6 C 6.79 g/m*3 6.6 C 3.2 km/h
175 24-11-2020 15:30:00 6.6 C 6.79 g/m*3 6.6 C 3.2 km/h
Sensor: Nr:Datum:Temp:Abs-Feuchte:Windchill:Wind:
Aussen-T/F 176 24-11-2020 15:35:00 6.5 C 6.75 g/m*3 5.33 C 6.4 km/h
177 24-11-2020 15:40:00 6.4 C 6.71 g/m*3 6.4 C 4.8 km/h
178 24-11-2020 15:45:00 6.4 C 6.71 g/m*3 6.4 C 1.6 km/h
179 24-11-2020 15:50:00 6.4 C 6.71 g/m*3 6.4 C 0 km/h
180 24-11-2020 15:55:00 6.4 C 6.71 g/m*3 6.4 C 4.8 km/h
181 24-11-2020 16:00:00 6.4 C 6.71 g/m*3 6.4 C 0 km/h
182 24-11-2020 16:05:00 6.4 C 6.71 g/m*3 6.4 C 3.2 km/h
183 24-11-2020 16:10:00 6.4 C 6.71 g/m*3 6.4 C 0 km/h
184 24-11-2020 16:15:00 6.4 C 6.71 g/m*3 6.4 C 0 km/h
185 24-11-2020 16:20:00 6.5 C 6.75 g/m*3 6.5 C 1.6 km/h
186 24-11-2020 16:25:00 6.5 C 6.75 g/m*3 6.5 C 1.6 km/h
187 24-11-2020 16:30:00 6.5 C 6.75 g/m*3 6.5 C 1.6 km/h
188 24-11-2020 16:35:00 6.5 C 6.75 g/m*3 6.5 C 0 km/h
189 24-11-2020 16:40:00 6.5 C 6.75 g/m*3 6.5 C 0 km/h
190 24-11-2020 16:45:00 6.5 C 6.75 g/m*3 6.5 C 0 km/h
191 24-11-2020 16:50:00 6.5 C 6.75 g/m*3 6.5 C 0 km/h
192 24-11-2020 16:55:00 6.5 C 6.75 g/m*3 6.5 C 4.8 km/h
193 24-11-2020 17:00:00 6.5 C 6.75 g/m*3 6.5 C 1.6 km/h
194 24-11-2020 17:05:00 6.5 C 6.75 g/m*3 6.5 C 0 km/h
195 24-11-2020 17:10:00 6.5 C 6.75 g/m*3 6.5 C 0 km/h
196 24-11-2020 17:15:00 6.6 C 6.79 g/m*3 6.6 C 0 km/h
197 24-11-2020 17:20:00 6.5 C 6.75 g/m*3 6.5 C 0 km/h
198 24-11-2020 17:25:00 6.6 C 6.79 g/m*3 6.6 C 0 km/h
199 24-11-2020 17:30:00 6.6 C 6.79 g/m*3 6.6 C 0 km/h
200 24-11-2020 17:35:00 6.5 C 6.75 g/m*3 5.33 C 6.4 km/h
Sensor: Nr:Datum:Temp:Abs-Feuchte:Windchill:Wind:
Aussen-T/F 201 24-11-2020 17:40:00 6.5 C 6.75 g/m*3 6.5 C 1.6 km/h
202 24-11-2020 17:45:00 6.5 C 6.75 g/m*3 6.5 C 1.6 km/h
203 24-11-2020 17:50:00 6.5 C 6.75 g/m*3 6.5 C 1.6 km/h
204 24-11-2020 17:55:00 6.4 C 6.71 g/m*3 6.4 C 0 km/h
205 24-11-2020 18:00:00 6.4 C 6.71 g/m*3 6.4 C 3.2 km/h
206 24-11-2020 18:05:00 6.4 C 6.71 g/m*3 6.4 C 1.6 km/h
207 24-11-2020 18:10:00 6.4 C 6.71 g/m*3 6.4 C 1.6 km/h
208 24-11-2020 18:15:00 6.4 C 6.71 g/m*3 6.4 C 4.8 km/h
209 24-11-2020 18:20:00 6.4 C 6.71 g/m*3 6.4 C 3.2 km/h
210 24-11-2020 18:25:00 6.4 C 6.71 g/m*3 6.4 C 1.6 km/h
211 24-11-2020 18:30:00 6.4 C 6.71 g/m*3 6.4 C 0 km/h
212 24-11-2020 18:35:00 6.4 C 6.71 g/m*3 6.4 C 0 km/h
213 24-11-2020 18:40:00 6.4 C 6.71 g/m*3 6.4 C 0 km/h
214 24-11-2020 18:45:00 6.4 C 6.71 g/m*3 6.4 C 0 km/h
215 24-11-2020 18:50:00 6.4 C 6.71 g/m*3 6.4 C 0 km/h
216 24-11-2020 18:55:00 6.4 C 6.71 g/m*3 6.4 C 0 km/h
217 24-11-2020 19:00:00 6.4 C 6.71 g/m*3 6.4 C 0 km/h
218 24-11-2020 19:05:00 6.4 C 6.71 g/m*3 6.4 C 3.2 km/h

Legende:
   Min
   Max


Maximal/Minimal-Werte vom 24.11.2020 - 24.11.2020

Sensor Min Max Avg
Temp
(Aussen-T/F)
5.1 °C
24-11-2020  09:00:00
7.3 °C
24-11-2020  12:40:00
6.29 °C
Abs-Feuchte
(Aussen-T/F)
6.43 g/m*3
24-11-2020  09:00:00
7.19 g/m*3
24-11-2020  01:00:00
6.77 g/m*3
Windchill
(Aussen-T/F)
3.71 C
24-11-2020  09:05:00
7.3 C
24-11-2020  12:40:00
6.15 C

Die Daten stammen von einer Davis Vantage Pro 2 Wetter-Station und werden unter Linux mit der Software wview2wettercgi und aufbereitet. Alle Angaben erfolgen ohne Gewähr für ihre Vollständigkeit oder Richtigkeit.
Kontakt: Rainer Krienke krienke@uni-koblenz.de . Meine Webseiten an der Uni Koblenz oder privat.
Version: $Revision: 0.78 $